Time;durP1;ratioP1;P1;durP2;ratioP2;P2;SDS_P1;SDS_P2;PMS_P1;PMS_P2;Temp;Humidity;BMP_temperature;BMP_pressure;BME280_temperature;BME280_humidity;BME280_pressure;Samples;Min_cycle;Max_cycle;Signal;HPM_P1;HPM_P2
2022/02/21 00:00:20;;;;;;;7.07;1.10;;;;;;;7.06;100.00;94779.13;5033530;28;24434;-76
2022/02/21 00:02:50;;;;;;;2.95;1.17;;;;;;;7.18;100.00;94772.34;5034167;28;24431;-76
2022/02/21 00:05:17;;;;;;;2.47;1.08;;;;;;;7.08;100.00;94787.56;5033880;28;24460;-76
2022/02/21 00:07:44;;;;;;;2.97;1.00;;;;;;;7.09;100.00;94766.06;5033900;28;24427;-76
2022/02/21 00:10:12;;;;;;;4.60;1.35;;;;;;;7.02;100.00;94757.88;5034086;28;24416;-76
2022/02/21 00:12:38;;;;;;;3.45;0.90;;;;;;;6.98;100.00;94756.44;5033934;28;24464;-77
2022/02/21 00:15:08;;;;;;;3.53;0.90;;;;;;;6.97;100.00;94734.22;5033868;28;24751;-76
2022/02/21 00:17:34;;;;;;;2.13;0.93;;;;;;;6.98;100.00;94725.56;5033323;28;24956;-76
2022/02/21 00:20:01;;;;;;;1.60;0.80;;;;;;;7.00;100.00;94721.13;5033982;28;24419;-76
2022/02/21 00:22:28;;;;;;;1.55;0.70;;;;;;;6.97;100.00;94723.06;5033833;28;24434;-76
2022/02/21 00:24:54;;;;;;;1.93;1.00;;;;;;;6.99;100.00;94721.22;5033387;28;24528;-76
2022/02/21 00:27:21;;;;;;;2.03;0.77;;;;;;;6.98;100.00;94722.16;5033601;28;24438;-76
2022/02/21 00:29:48;;;;;;;4.20;0.98;;;;;;;6.99;100.00;94710.94;5033669;28;24478;-76
2022/02/21 00:32:16;;;;;;;5.80;1.00;;;;;;;7.09;100.00;94700.88;5033657;28;24511;-76
2022/02/21 00:34:43;;;;;;;6.30;1.13;;;;;;;7.00;100.00;94708.25;5033508;28;24427;-76
2022/02/21 00:37:09;;;;;;;3.47;1.00;;;;;;;6.90;100.00;94703.81;5033115;28;24427;-76
2022/02/21 00:39:36;;;;;;;2.92;1.02;;;;;;;6.92;100.00;94695.06;5033540;28;24432;-76
2022/02/21 00:42:02;;;;;;;2.92;1.30;;;;;;;6.88;100.00;94695.38;5027007;28;24464;-76
2022/02/21 00:44:29;;;;;;;1.80;0.95;;;;;;;6.81;100.00;94700.09;5013533;28;24456;-76
2022/02/21 00:46:56;;;;;;;2.60;1.15;;;;;;;6.86;100.00;94702.34;5013376;28;24435;-76
2022/02/21 00:49:24;;;;;;;3.65;1.20;;;;;;;6.79;100.00;94709.66;5013590;28;24486;-76
2022/02/21 00:51:50;;;;;;;3.45;1.13;;;;;;;6.78;100.00;94689.97;5013268;28;24841;-76
2022/02/21 00:54:16;;;;;;;5.35;1.20;;;;;;;6.80;100.00;94685.56;5013350;28;24432;-76
2022/02/21 00:56:43;;;;;;;5.28;1.17;;;;;;;6.76;100.00;94678.97;5012982;28;24432;-76
2022/02/21 00:59:09;;;;;;;3.42;1.10;;;;;;;6.67;100.00;94664.94;5013319;28;24429;-76
2022/02/21 01:01:36;;;;;;;4.25;1.42;;;;;;;6.61;100.00;94656.81;5013092;28;24519;-76
2022/02/21 01:04:02;;;;;;;4.00;1.25;;;;;;;6.60;100.00;94647.44;5013214;28;24441;-77
2022/02/21 01:06:30;;;;;;;3.17;1.23;;;;;;;6.61;100.00;94633.66;5013126;28;24424;-77
2022/02/21 01:08:56;;;;;;;2.97;1.33;;;;;;;6.58;100.00;94637.25;5013123;28;24428;-77
2022/02/21 01:11:24;;;;;;;2.70;1.02;;;;;;;6.54;100.00;94628.91;5013128;28;24439;-77
2022/02/21 01:13:51;;;;;;;4.32;1.20;;;;;;;6.46;100.00;94604.63;5013108;28;24435;-77
2022/02/21 01:16:17;;;;;;;3.92;1.40;;;;;;;6.41;100.00;94602.31;5012610;28;24447;-77
2022/02/21 01:18:44;;;;;;;2.88;1.20;;;;;;;6.44;100.00;94604.72;5012532;28;24957;-77
2022/02/21 01:21:10;;;;;;;3.30;1.00;;;;;;;6.39;100.00;94596.47;5012706;28;24424;-77
2022/02/21 01:23:40;;;;;;;3.22;1.10;;;;;;;6.34;100.00;94590.81;5012884;28;24478;-77
2022/02/21 01:26:06;;;;;;;3.00;1.15;;;;;;;6.29;100.00;94583.38;5012419;28;24433;-77
2022/02/21 01:28:33;;;;;;;2.80;1.08;;;;;;;6.38;100.00;94565.69;5012717;28;24841;-77
2022/02/21 01:30:59;;;;;;;3.00;1.15;;;;;;;6.37;100.00;94546.88;5012780;28;24428;-77
2022/02/21 01:33:26;;;;;;;3.80;1.02;;;;;;;6.45;100.00;94548.94;5012807;28;24432;-77
2022/02/21 01:35:52;;;;;;;2.28;1.00;;;;;;;6.31;100.00;94531.88;5012533;28;24495;-77
2022/02/21 01:38:19;;;;;;;3.67;0.85;;;;;;;6.31;100.00;94529.31;5012226;28;24419;-77
2022/02/21 01:40:47;;;;;;;3.00;1.02;;;;;;;6.40;100.00;94535.56;5012641;28;24433;-77
2022/02/21 01:43:13;;;;;;;1.85;0.80;;;;;;;6.28;100.00;94538.03;5012179;28;25014;-77
2022/02/21 01:45:40;;;;;;;3.60;1.10;;;;;;;6.20;100.00;94521.47;5011968;28;25012;-77
2022/02/21 01:48:06;;;;;;;1.70;0.70;;;;;;;6.20;100.00;94501.72;5012377;28;24870;-76
2022/02/21 01:50:33;;;;;;;1.92;0.80;;;;;;;6.25;100.00;94511.69;5012423;28;24420;-76
2022/02/21 01:53:00;;;;;;;2.57;1.13;;;;;;;6.29;100.00;94515.72;5013360;28;24447;-77
2022/02/21 01:55:26;;;;;;;3.37;0.90;;;;;;;6.23;100.00;94485.25;5012505;28;24428;-77
2022/02/21 01:57:54;;;;;;;1.67;0.70;;;;;;;6.30;100.00;94478.78;5011855;28;24969;-77
2022/02/21 02:00:21;;;;;;;2.22;0.75;;;;;;;6.36;100.00;94490.41;5012252;28;24424;-76
2022/02/21 02:02:48;;;;;;;2.50;0.70;;;;;;;6.34;100.00;94469.97;5012279;28;24427;-77
2022/02/21 02:05:15;;;;;;;4.70;0.82;;;;;;;6.41;100.00;94460.88;5011738;28;24985;-77
2022/02/21 02:07:42;;;;;;;2.60;0.65;;;;;;;6.43;100.00;94441.03;5011947;28;24478;-77
2022/02/21 02:10:09;;;;;;;1.83;0.68;;;;;;;6.47;100.00;94457.09;5011904;28;24937;-76
2022/02/21 02:12:36;;;;;;;2.03;0.57;;;;;;;6.52;100.00;94434.44;5011819;28;24435;-76
2022/02/21 02:15:04;;;;;;;1.77;0.77;;;;;;;6.51;100.00;94450.81;5011526;28;24455;-76
2022/02/21 02:17:31;;;;;;;2.38;0.57;;;;;;;6.47;100.00;94416.75;5011760;28;24677;-77
2022/02/21 02:19:58;;;;;;;1.92;0.82;;;;;;;6.53;100.00;94431.78;5011993;28;24478;-76
2022/02/21 02:22:25;;;;;;;2.33;0.70;;;;;;;6.50;100.00;94419.13;5011879;28;24428;-76
2022/02/21 02:24:54;;;;;;;1.50;0.70;;;;;;;6.42;100.00;94423.16;5011834;28;24468;-76
2022/02/21 02:27:21;;;;;;;3.30;0.75;;;;;;;6.30;100.00;94435.06;5011743;28;24424;-75
2022/02/21 02:29:56;;;;;;;1.98;0.70;;;;;;;6.25;100.00;94409.69;5011317;28;24436;-76
2022/02/21 02:32:23;;;;;;;2.22;0.52;;;;;;;6.18;100.00;94420.47;5011523;28;24952;-75
2022/02/21 02:34:51;;;;;;;3.20;0.70;;;;;;;6.10;100.00;94420.16;5011356;28;24826;-77
2022/02/21 02:37:20;;;;;;;2.60;0.80;;;;;;;6.02;100.00;94428.41;5011633;28;24432;-77
2022/02/21 02:39:48;;;;;;;1.42;0.60;;;;;;;6.03;100.00;94407.72;5011772;28;24478;-77
2022/02/21 02:42:15;;;;;;;1.90;0.50;;;;;;;6.01;100.00;94417.28;5011427;28;24953;-77
2022/02/21 02:44:42;;;;;;;1.77;0.50;;;;;;;6.07;100.00;94401.44;5011310;28;24464;-77
2022/02/21 02:47:10;;;;;;;2.95;0.63;;;;;;;6.06;100.00;94386.13;5011189;28;24522;-76
2022/02/21 02:49:40;;;;;;;2.30;0.70;;;;;;;6.04;100.00;94375.97;5011519;28;24416;-76
2022/02/21 02:52:07;;;;;;;1.65;0.57;;;;;;;6.09;100.00;94374.84;5011146;28;24420;-76
2022/02/21 02:54:34;;;;;;;0.80;0.57;;;;;;;6.04;100.00;94370.84;5011180;28;24427;-76
2022/02/21 02:57:02;;;;;;;1.75;0.50;;;;;;;6.12;100.00;94379.75;5011126;28;24437;-77
2022/02/21 02:59:28;;;;;;;3.53;1.00;;;;;;;6.16;100.00;94365.78;5011293;28;24486;-76
2022/02/21 03:01:55;;;;;;;3.40;0.70;;;;;;;6.10;100.00;94361.06;5011323;28;24428;-76
2022/02/21 03:04:22;;;;;;;3.28;1.00;;;;;;;6.06;100.00;94366.41;5010849;28;24515;-76
2022/02/21 03:06:48;;;;;;;2.58;0.50;;;;;;;6.06;100.00;94340.69;5010777;28;25004;-76
2022/02/21 03:09:15;;;;;;;1.45;0.57;;;;;;;6.14;100.00;94341.91;5010815;28;24946;-77
2022/02/21 03:11:41;;;;;;;2.20;0.60;;;;;;;6.12;100.00;94321.47;5010863;28;25117;-77
2022/02/21 03:14:10;;;;;;;1.58;0.50;;;;;;;6.11;100.00;94337.81;5011012;28;24455;-76
2022/02/21 03:16:36;;;;;;;1.50;0.70;;;;;;;6.14;100.00;94341.91;5011066;28;24431;-75
2022/02/21 03:19:03;;;;;;;3.40;0.52;;;;;;;6.02;100.00;94353.88;5010874;28;24424;-75
2022/02/21 03:21:30;;;;;;;1.50;0.70;;;;;;;5.99;100.00;94354.88;5010740;28;24970;-76
2022/02/21 03:23:56;;;;;;;2.03;0.57;;;;;;;6.03;100.00;94383.78;5010986;28;24439;-76
2022/02/21 03:26:22;;;;;;;1.88;0.40;;;;;;;5.96;100.00;94397.94;5010508;28;24842;-76
2022/02/21 03:28:49;;;;;;;2.47;0.57;;;;;;;5.92;100.00;94484.69;5010782;28;24424;-76
2022/02/21 03:31:17;;;;;;;3.58;0.65;;;;;;;5.76;100.00;94541.38;5011135;28;24428;-76
2022/02/21 03:33:44;;;;;;;3.93;0.67;;;;;;;5.23;100.00;94565.25;5011403;28;24506;-76
2022/02/21 03:36:10;;;;;;;0.80;0.30;;;;;;;4.91;100.00;94597.97;5015057;28;24424;-76
2022/02/21 03:38:37;;;;;;;0.60;0.17;;;;;;;4.58;100.00;94605.00;5014654;28;24992;-76
2022/02/21 03:41:04;;;;;;;1.10;0.20;;;;;;;4.28;100.00;94633.22;5014883;28;24428;-77
2022/02/21 03:43:30;;;;;;;3.60;0.20;;;;;;;3.27;100.00;94613.13;5015521;28;24455;-79
2022/02/21 03:45:57;;;;;;;0.55;0.20;;;;;;;2.88;100.00;94644.94;5015082;28;24456;-76
2022/02/21 03:48:25;;;;;;;0.95;0.30;;;;;;;2.51;100.00;94643.41;5014824;28;24450;-76
2022/02/21 03:50:51;;;;;;;1.08;0.40;;;;;;;2.31;100.00;94687.81;5014480;28;24494;-76
2022/02/21 03:53:18;;;;;;;0.77;0.20;;;;;;;2.17;100.00;94673.16;5014599;28;24968;-77
2022/02/21 03:55:45;;;;;;;2.90;0.30;;;;;;;1.95;100.00;94698.03;5033219;28;24447;-76
2022/02/21 03:58:11;;;;;;;1.10;0.30;;;;;;;1.76;100.00;94698.06;5034614;28;24443;-78
2022/02/21 04:00:38;;;;;;;0.60;0.30;;;;;;;1.59;100.00;94719.22;5034511;28;24424;-76
2022/02/21 04:03:04;;;;;;;0.60;0.30;;;;;;;1.42;100.00;94714.88;5034621;28;24495;-76
2022/02/21 04:05:32;;;;;;;0.93;0.25;;;;;;;1.26;100.00;94718.16;5034270;28;24464;-76
2022/02/21 04:07:59;;;;;;;3.22;0.60;;;;;;;1.16;100.00;94743.25;5034564;28;24781;-76
2022/02/21 04:10:25;;;;;;;1.40;0.40;;;;;;;1.12;100.00;94694.09;5034070;28;24485;-76
2022/02/21 04:12:52;;;;;;;2.30;0.77;;;;;;;1.06;100.00;94724.13;5033996;28;24478;-76
2022/02/21 04:15:18;;;;;;;2.85;1.05;;;;;;;1.12;100.00;94724.69;5034939;28;24451;-76
2022/02/21 04:17:46;;;;;;;3.25;1.10;;;;;;;1.05;100.00;94707.19;5033795;28;24474;-76
2022/02/21 04:20:15;;;;;;;6.05;1.00;;;;;;;1.03;100.00;94722.53;5033487;28;24999;-76
2022/02/21 04:22:43;;;;;;;5.40;1.30;;;;;;;1.02;100.00;94712.41;5033965;28;24832;-76
2022/02/21 04:25:11;;;;;;;4.65;1.35;;;;;;;0.96;100.00;94703.28;5033320;28;24463;-76
2022/02/21 04:27:43;;;;;;;5.15;1.42;;;;;;;0.98;100.00;94673.47;5033683;28;24431;-76
2022/02/21 04:30:10;;;;;;;4.28;1.30;;;;;;;0.90;100.00;94678.06;5033610;28;24511;-76
2022/02/21 04:32:38;;;;;;;6.03;1.67;;;;;;;1.15;100.00;94614.06;5033856;28;24427;-75
2022/02/21 04:35:05;;;;;;;7.35;1.70;;;;;;;1.27;100.00;94633.94;5033468;28;24443;-76
2022/02/21 04:37:32;;;;;;;7.35;2.65;;;;;;;1.44;100.00;94641.63;5033410;28;24812;-76
2022/02/21 04:40:00;;;;;;;6.60;2.33;;;;;;;1.56;100.00;94622.41;5033389;28;24426;-76
2022/02/21 04:42:27;;;;;;;5.93;2.35;;;;;;;1.73;100.00;94641.22;5033375;28;24432;-75
2022/02/21 04:44:53;;;;;;;10.38;2.05;;;;;;;1.76;100.00;94623.22;5032813;28;24424;-75
2022/02/21 04:47:19;;;;;;;9.18;2.38;;;;;;;1.80;100.00;94630.66;5032841;28;24474;-76
2022/02/21 04:49:46;;;;;;;6.63;2.25;;;;;;;1.94;100.00;94656.38;5033411;28;24829;-76
2022/02/21 04:52:13;;;;;;;6.95;2.20;;;;;;;1.93;100.00;94699.84;5033270;28;24423;-76
2022/02/21 04:54:39;;;;;;;6.72;2.22;;;;;;;1.98;100.00;94674.91;5032774;28;25001;-75
2022/02/21 04:57:07;;;;;;;7.75;2.10;;;;;;;2.10;100.00;94659.00;5032825;28;24427;-75
2022/02/21 04:59:34;;;;;;;8.23;2.20;;;;;;;2.12;100.00;94652.13;5033138;28;24432;-75
2022/02/21 05:02:00;;;;;;;10.57;2.75;;;;;;;2.09;100.00;94651.44;5032989;28;24424;-76
2022/02/21 05:04:27;;;;;;;7.25;2.22;;;;;;;2.06;100.00;94657.50;5033019;28;24424;-76
2022/02/21 05:06:53;;;;;;;14.23;2.97;;;;;;;2.13;100.00;94663.16;5032301;28;24965;-75
2022/02/21 05:09:20;;;;;;;8.27;2.35;;;;;;;2.22;100.00;94679.75;5032959;28;24450;-76
2022/02/21 05:11:46;;;;;;;17.25;2.97;;;;;;;2.26;100.00;94683.81;5032611;28;24419;-76
2022/02/21 05:14:14;;;;;;;9.73;2.53;;;;;;;2.25;100.00;94677.91;5032656;28;24957;-76
2022/02/21 05:16:40;;;;;;;10.90;2.70;;;;;;;2.22;100.00;94692.53;5032815;28;24420;-76
2022/02/21 05:19:07;;;;;;;9.40;2.80;;;;;;;2.35;100.00;94686.78;5032715;28;24428;-76
2022/02/21 05:21:33;;;;;;;7.47;2.50;;;;;;;2.47;100.00;94685.34;5032759;28;24478;-75
2022/02/21 05:24:00;;;;;;;12.38;2.58;;;;;;;2.38;100.00;94658.53;5032556;28;24424;-76
2022/02/21 05:26:26;;;;;;;23.52;3.35;;;;;;;2.37;100.00;94679.88;5032883;28;24447;-76
2022/02/21 05:28:53;;;;;;;10.77;2.80;;;;;;;2.37;100.00;94681.59;5032105;28;24845;-76
2022/02/21 05:31:22;;;;;;;10.73;2.80;;;;;;;2.35;100.00;94673.19;5032718;28;24478;-77
2022/02/21 05:33:48;;;;;;;15.85;2.55;;;;;;;2.33;100.00;94670.69;5032686;28;24507;-76
2022/02/21 05:36:15;;;;;;;7.75;2.35;;;;;;;2.27;100.00;94645.44;5032195;28;24423;-77
2022/02/21 05:38:41;;;;;;;10.32;2.88;;;;;;;2.27;100.00;94631.84;5032426;28;24473;-76
2022/02/21 05:41:08;;;;;;;12.20;2.87;;;;;;;2.25;100.00;94644.69;5032694;28;24428;-77
2022/02/21 05:43:35;;;;;;;11.60;3.00;;;;;;;2.34;100.00;94677.47;5032850;28;24422;-75
2022/02/21 05:46:01;;;;;;;11.55;3.20;;;;;;;2.40;100.00;94692.47;5032802;28;24928;-77
2022/02/21 05:48:29;;;;;;;12.10;2.97;;;;;;;2.30;100.00;94672.56;5032040;28;24431;-77
2022/02/21 05:50:55;;;;;;;15.40;3.40;;;;;;;2.27;100.00;94686.31;5032547;28;24486;-77
2022/02/21 05:53:22;;;;;;;10.77;2.90;;;;;;;2.31;100.00;94692.94;5031883;28;24971;-74
2022/02/21 05:55:49;;;;;;;12.55;2.70;;;;;;;2.31;100.00;94700.59;5031354;28;24976;-74
2022/02/21 05:58:15;;;;;;;11.57;2.50;;;;;;;2.39;100.00;94706.16;5031451;28;24491;-75
2022/02/21 06:00:42;;;;;;;8.05;2.75;;;;;;;2.36;100.00;94692.72;5018865;28;24432;-75
2022/02/21 06:03:09;;;;;;;7.65;2.75;;;;;;;2.32;100.00;94679.25;5012574;28;24425;-76
2022/02/21 06:05:37;;;;;;;8.88;2.42;;;;;;;2.35;100.00;94694.44;5011625;28;25041;-76
2022/02/21 06:08:03;;;;;;;8.38;2.80;;;;;;;2.33;100.00;94715.84;5029399;28;24435;-75
2022/02/21 06:10:30;;;;;;;9.05;2.65;;;;;;;2.32;100.00;94724.41;5031273;28;24420;-76
2022/02/21 06:12:56;;;;;;;10.82;2.67;;;;;;;2.31;100.00;94726.16;5031567;28;24427;-75
2022/02/21 06:15:23;;;;;;;9.27;2.70;;;;;;;2.37;100.00;94740.34;5031467;28;24436;-77
2022/02/21 06:17:49;;;;;;;12.30;2.78;;;;;;;2.29;100.00;94747.56;5031105;28;24542;-77
2022/02/21 06:20:16;;;;;;;12.13;3.17;;;;;;;2.30;100.00;94777.31;5031804;28;24514;-77
2022/02/21 06:22:44;;;;;;;8.75;2.60;;;;;;;2.26;100.00;94784.28;5031497;28;24432;-77
2022/02/21 06:25:10;;;;;;;12.15;3.20;;;;;;;2.30;100.00;94801.16;5030281;28;24559;-77
2022/02/21 06:27:37;;;;;;;17.42;3.67;;;;;;;2.32;100.00;94814.66;5031243;28;24454;-77
2022/02/21 06:30:04;;;;;;;10.90;3.22;;;;;;;2.23;100.00;94820.22;5031161;28;24430;-77
2022/02/21 06:32:30;;;;;;;9.93;2.83;;;;;;;2.20;100.00;94814.41;5030455;28;24435;-79
2022/02/21 06:34:57;;;;;;;12.45;3.20;;;;;;;2.21;100.00;94839.88;5038480;28;25038;-77
2022/02/21 06:37:23;;;;;;;13.20;3.10;;;;;;;2.26;100.00;94844.78;5051380;28;24423;-76
2022/02/21 06:39:51;;;;;;;18.92;3.17;;;;;;;2.24;100.00;94864.47;5042964;28;24439;-76
2022/02/21 06:42:18;;;;;;;12.10;3.20;;;;;;;2.20;100.00;94878.28;5028653;28;24976;-77
2022/02/21 06:44:44;;;;;;;12.05;3.40;;;;;;;2.18;100.00;94881.72;5011790;28;24508;-76
2022/02/21 06:47:10;;;;;;;11.20;3.10;;;;;;;2.17;100.00;94879.22;5011582;28;24440;-77
2022/02/21 06:49:38;;;;;;;9.70;3.08;;;;;;;2.14;100.00;94892.13;5011528;28;24424;-78
2022/02/21 06:52:05;;;;;;;11.27;3.08;;;;;;;2.10;100.00;94891.44;5011569;28;24475;-76
2022/02/21 06:54:32;;;;;;;12.23;2.75;;;;;;;2.02;100.00;94897.78;5011824;28;24432;-77
2022/02/21 06:57:00;;;;;;;10.50;3.92;;;;;;;2.03;100.00;94887.50;5011592;28;24980;-77
2022/02/21 06:59:27;;;;;;;20.77;3.58;;;;;;;2.08;100.00;94903.47;5011845;28;24432;-77
2022/02/21 07:01:56;;;;;;;10.18;3.35;;;;;;;2.12;100.00;94914.38;5014304;28;24463;-76
2022/02/21 07:04:24;;;;;;;11.50;3.30;;;;;;;2.07;100.00;94918.84;5030916;28;24439;-75
2022/02/21 07:06:50;;;;;;;12.68;3.15;;;;;;;2.03;100.00;94918.13;5030485;28;24483;-76
2022/02/21 07:09:17;;;;;;;15.30;3.55;;;;;;;2.07;100.00;94926.50;5013760;28;24447;-75
2022/02/21 07:11:43;;;;;;;12.48;3.50;;;;;;;2.14;100.00;94933.84;5011413;28;24962;-78
2022/02/21 07:14:11;;;;;;;17.60;3.35;;;;;;;2.16;100.00;94952.50;5012740;28;24474;-77
2022/02/21 07:16:37;;;;;;;13.23;3.90;;;;;;;2.25;100.00;94935.94;5016522;28;24424;-77
2022/02/21 07:19:04;;;;;;;18.30;4.00;;;;;;;2.33;100.00;94935.59;5011338;28;24527;-76
2022/02/21 07:21:30;;;;;;;17.17;4.32;;;;;;;2.36;100.00;94951.63;5011064;28;24443;-77
2022/02/21 07:23:57;;;;;;;13.57;3.88;;;;;;;2.48;100.00;94942.56;5010655;28;24985;-77
2022/02/21 07:26:23;;;;;;;14.25;3.85;;;;;;;2.63;100.00;94943.63;5027547;28;24845;-78
2022/02/21 07:28:50;;;;;;;19.50;3.97;;;;;;;2.61;100.00;94960.78;5032630;28;24938;-77
2022/02/21 07:31:18;;;;;;;12.43;3.60;;;;;;;2.72;100.00;94967.97;5030925;28;24423;-69
2022/02/21 07:33:45;;;;;;;15.02;4.15;;;;;;;2.79;100.00;94954.81;5030324;28;24486;-76
2022/02/21 07:36:11;;;;;;;17.80;4.50;;;;;;;2.77;100.00;94973.69;5030101;28;24504;-76
2022/02/21 07:38:37;;;;;;;15.10;4.03;;;;;;;2.65;100.00;94986.13;5030167;28;24984;-79
2022/02/21 07:41:04;;;;;;;15.63;4.07;;;;;;;2.54;100.00;94983.22;5030509;28;24431;-75
2022/02/21 07:43:32;;;;;;;13.55;3.88;;;;;;;2.55;100.00;94971.25;5024763;28;24440;-75
2022/02/21 07:45:58;;;;;;;18.17;4.20;;;;;;;2.56;100.00;94993.34;5030237;28;24530;-76
2022/02/21 07:48:27;;;;;;;17.15;4.20;;;;;;;2.58;100.00;94987.28;5029901;28;24825;-77
2022/02/21 07:50:55;;;;;;;17.65;3.58;;;;;;;2.60;100.00;94987.25;5033174;28;24447;-77
2022/02/21 07:53:22;;;;;;;17.50;3.88;;;;;;;2.49;100.00;94974.09;5027784;28;24990;-76
2022/02/21 07:55:48;;;;;;;14.98;3.92;;;;;;;2.50;100.00;94975.75;5018481;28;24432;-77
2022/02/21 07:58:15;;;;;;;13.90;3.97;;;;;;;2.46;100.00;94977.63;5030269;28;24420;-76
2022/02/21 08:00:41;;;;;;;16.48;3.72;;;;;;;2.50;100.00;94993.66;5031618;28;24478;-76
2022/02/21 08:03:08;;;;;;;10.70;3.35;;;;;;;2.44;100.00;94971.72;5031280;28;24428;-77
2022/02/21 08:05:36;;;;;;;14.00;4.38;;;;;;;2.48;100.00;94970.69;5014044;28;24432;-74
2022/02/21 08:08:02;;;;;;;15.45;3.90;;;;;;;2.42;100.00;94983.75;5030624;28;24797;-76
2022/02/21 08:10:30;;;;;;;16.80;3.72;;;;;;;2.45;100.00;94959.78;5029858;28;24485;-75
2022/02/21 08:12:56;;;;;;;13.45;3.80;;;;;;;2.43;100.00;94970.91;5029293;28;25050;-76
2022/02/21 08:15:23;;;;;;;14.75;3.80;;;;;;;2.43;100.00;94972.63;5030498;28;24444;-76
2022/02/21 08:17:49;;;;;;;22.55;3.75;;;;;;;2.44;100.00;94974.28;5030241;28;24431;-75
2022/02/21 08:20:18;;;;;;;14.43;4.23;;;;;;;2.51;100.00;94972.28;5032189;28;24430;-76
2022/02/21 08:22:46;;;;;;;13.23;3.50;;;;;;;2.52;100.00;94958.59;5033847;28;24423;-75
2022/02/21 08:25:14;;;;;;;10.15;3.60;;;;;;;2.61;100.00;94955.66;5022300;28;24787;-75
2022/02/21 08:27:42;;;;;;;16.05;3.90;;;;;;;2.60;100.00;94959.94;5013945;28;24455;-75
2022/02/21 08:30:12;;;;;;;15.93;4.30;;;;;;;2.72;100.00;94960.28;5013507;28;24819;-76
2022/02/21 08:32:38;;;;;;;14.13;4.10;;;;;;;2.71;100.00;94967.13;5013171;28;24436;-76
2022/02/21 08:35:06;;;;;;;14.90;3.75;;;;;;;2.84;100.00;94975.06;5030629;28;24436;-76
2022/02/21 08:37:33;;;;;;;16.15;4.15;;;;;;;2.77;100.00;94982.19;5033293;28;24825;-73
2022/02/21 08:40:01;;;;;;;15.98;3.85;;;;;;;2.81;100.00;94980.31;5039753;28;24446;-74
2022/02/21 08:42:27;;;;;;;22.45;4.72;;;;;;;2.88;100.00;94982.53;5052343;28;24431;-77
2022/02/21 08:44:53;;;;;;;15.60;3.95;;;;;;;2.90;100.00;94996.09;5022132;28;24444;-75
2022/02/21 08:47:21;;;;;;;14.70;3.63;;;;;;;2.84;100.00;94993.78;5013128;28;24452;-76
2022/02/21 08:49:47;;;;;;;14.77;3.67;;;;;;;2.80;100.00;94992.28;5011928;28;24490;-76
2022/02/21 08:52:16;;;;;;;15.30;4.20;;;;;;;2.77;100.00;95001.81;5011643;28;24425;-75
2022/02/21 08:54:43;;;;;;;12.45;3.75;;;;;;;2.78;100.00;95011.13;5027536;28;24844;-77
2022/02/21 08:57:10;;;;;;;18.30;3.97;;;;;;;2.75;100.00;95006.19;5024995;28;24778;-77
2022/02/21 08:59:37;;;;;;;16.13;3.40;;;;;;;2.64;100.00;95001.53;5012193;28;24930;-78
2022/02/21 09:02:04;;;;;;;14.10;3.80;;;;;;;2.83;100.00;95017.72;5011558;28;24830;-78
2022/02/21 09:04:31;;;;;;;17.58;4.20;;;;;;;2.87;100.00;95024.34;5025284;28;24460;-77
2022/02/21 09:06:57;;;;;;;13.80;3.50;;;;;;;2.88;100.00;95027.75;5032386;28;24456;-76
2022/02/21 09:09:24;;;;;;;17.08;4.43;;;;;;;2.89;100.00;95029.38;5033107;28;24431;-77
2022/02/21 09:11:51;;;;;;;15.05;3.65;;;;;;;3.17;97.45;95036.66;5032281;28;24440;-76
2022/02/21 09:14:19;;;;;;;12.40;3.47;;;;;;;3.12;98.24;95030.94;5021568;28;24451;-76
2022/02/21 09:16:46;;;;;;;15.80;4.00;;;;;;;3.24;97.96;95044.91;5013173;28;24437;-76
2022/02/21 09:19:13;;;;;;;11.70;3.28;;;;;;;3.39;96.67;95049.31;5023167;28;24431;-76
2022/02/21 09:21:39;;;;;;;12.27;3.60;;;;;;;3.28;98.47;95041.28;5023122;28;24440;-76
2022/02/21 09:24:06;;;;;;;14.27;3.83;;;;;;;3.29;98.83;95038.66;5026432;28;24435;-76
2022/02/21 09:26:33;;;;;;;14.02;3.10;;;;;;;3.34;95.89;95036.72;5023399;28;24459;-77
2022/02/21 09:28:59;;;;;;;13.67;3.53;;;;;;;3.21;95.87;95024.56;5022386;28;24520;-76
2022/02/21 09:31:27;;;;;;;13.27;3.70;;;;;;;3.24;96.39;95037.22;5019829;28;25064;-78
2022/02/21 09:33:54;;;;;;;11.05;3.25;;;;;;;3.15;97.04;95036.75;5022421;28;24447;-78
2022/02/21 09:36:20;;;;;;;11.82;3.42;;;;;;;3.08;96.40;95030.25;5024230;28;25042;-79
2022/02/21 09:38:46;;;;;;;11.45;3.70;;;;;;;3.12;98.71;95042.00;5022934;28;24487;-78
2022/02/21 09:41:14;;;;;;;9.70;3.22;;;;;;;3.23;96.54;95022.78;5022815;28;24786;-77
2022/02/21 09:43:40;;;;;;;11.07;3.55;;;;;;;3.19;94.64;95034.03;5031909;28;24509;-77
2022/02/21 09:46:10;;;;;;;16.23;3.50;;;;;;;3.19;96.87;95037.44;5033454;28;25002;-77
2022/02/21 09:48:39;;;;;;;10.88;3.53;;;;;;;3.23;96.30;95031.28;5014400;28;24519;-75
2022/02/21 09:51:08;;;;;;;10.57;3.40;;;;;;;3.23;95.50;95036.41;5013253;28;24977;-78
2022/02/21 09:53:36;;;;;;;10.98;3.42;;;;;;;3.29;96.90;95043.78;5018753;28;24427;-78
2022/02/21 09:56:03;;;;;;;14.13;3.75;;;;;;;3.41;98.57;95047.50;5033670;28;24435;-78
2022/02/21 09:58:31;;;;;;;11.07;3.30;;;;;;;3.27;98.67;95055.00;5032375;28;24454;-77
2022/02/21 10:00:57;;;;;;;12.90;3.60;;;;;;;3.23;100.00;95050.94;5032428;28;24430;-76
2022/02/21 10:03:42;;;;;;;14.35;3.63;;;;;;;3.15;99.05;95058.91;5020135;28;24498;-78
2022/02/21 10:06:16;;;;;;;9.68;3.03;;;;;;;3.38;94.92;95051.03;5012506;28;24440;-77
2022/02/21 10:09:03;;;;;;;17.30;3.20;;;;;;;3.31;89.51;95026.63;5012295;28;24862;-77
2022/02/21 10:11:32;;;;;;;10.97;3.60;;;;;;;3.50;94.29;95034.28;5011904;28;24435;-77
2022/02/21 10:14:00;;;;;;;9.90;3.05;;;;;;;3.53;93.12;95030.75;5033912;28;24510;-77
2022/02/21 10:16:37;;;;;;;9.48;2.95;;;;;;;3.57;90.07;95020.28;5031584;28;24427;-78
2022/02/21 10:19:14;;;;;;;8.82;3.03;;;;;;;3.62;89.03;95017.50;5031678;28;24820;-76
2022/02/21 10:21:52;;;;;;;12.60;2.85;;;;;;;3.42;89.74;95004.84;5032053;28;24888;-77
2022/02/21 10:24:19;;;;;;;8.55;3.05;;;;;;;3.39;89.12;95008.34;5019816;28;24873;-76
2022/02/21 10:26:45;;;;;;;9.55;3.00;;;;;;;3.95;91.07;94998.84;5011785;28;24435;-77
2022/02/21 10:29:12;;;;;;;8.63;3.08;;;;;;;4.09;88.44;94999.00;5012035;28;24421;-77
2022/02/21 10:31:39;;;;;;;11.60;3.25;;;;;;;4.20;84.93;94990.78;5014002;28;24520;-78
2022/02/21 10:34:09;;;;;;;12.68;3.78;;;;;;;4.25;85.76;94989.63;5030397;28;24439;-77
2022/02/21 10:36:39;;;;;;;14.57;2.83;;;;;;;4.35;81.30;94990.00;5032176;28;24434;-76
2022/02/21 10:39:07;;;;;;;11.25;3.10;;;;;;;4.46;82.23;94992.03;5031964;28;24415;-77
2022/02/21 10:41:49;;;;;;;14.45;4.03;;;;;;;4.53;81.25;94988.25;5027467;28;25196;-78
2022/02/21 10:44:21;;;;;;;20.17;9.77;;;;;;;4.71;82.00;94977.03;5011762;28;24786;-75
2022/02/21 10:47:03;;;;;;;20.38;4.60;;;;;;;4.84;81.51;94985.72;5014380;28;24904;-75
2022/02/21 10:49:31;;;;;;;10.57;3.83;;;;;;;4.96;81.23;94994.50;5030946;28;24588;-75
2022/02/21 10:52:00;;;;;;;8.77;2.80;;;;;;;4.56;81.33;95000.88;5031887;28;24428;-75
2022/02/21 10:54:30;;;;;;;6.32;2.80;;;;;;;4.47;83.11;94999.63;5017471;28;24529;-76
2022/02/21 10:56:57;;;;;;;8.13;3.55;;;;;;;4.49;84.71;94999.56;5011116;28;24424;-75
2022/02/21 10:59:28;;;;;;;9.63;3.55;;;;;;;4.16;89.30;95000.34;5011048;28;24988;-76
2022/02/21 11:01:55;;;;;;;8.80;3.00;;;;;;;3.76;93.74;95004.03;5010404;28;24464;-76
2022/02/21 11:04:23;;;;;;;10.67;2.80;;;;;;;3.44;96.87;95008.97;5011060;28;24862;-76
2022/02/21 11:06:50;;;;;;;20.25;3.03;;;;;;;3.28;100.00;95006.28;5010812;28;24486;-76
2022/02/21 11:09:20;;;;;;;15.88;4.10;;;;;;;3.12;100.00;95013.03;5014062;28;24467;-76
2022/02/21 11:11:48;;;;;;;14.30;4.05;;;;;;;3.01;100.00;95010.94;5030325;28;24412;-76
2022/02/21 11:14:18;;;;;;;25.35;7.97;;;;;;;3.07;100.00;95007.28;5026055;28;24432;-76
2022/02/21 11:16:46;;;;;;;15.18;4.47;;;;;;;2.93;100.00;95005.38;5030356;28;24462;-75
2022/02/21 11:19:14;;;;;;;13.85;4.10;;;;;;;2.92;100.00;95013.91;5030319;28;24503;-76
2022/02/21 11:21:42;;;;;;;13.00;4.38;;;;;;;2.86;100.00;94998.88;5030759;28;24430;-76
2022/02/21 11:24:09;;;;;;;15.20;4.20;;;;;;;2.78;100.00;94986.41;5029708;28;24994;-76
2022/02/21 11:26:39;;;;;;;12.05;5.15;;;;;;;2.98;100.00;94980.41;5030345;28;24431;-76
2022/02/21 11:29:13;;;;;;;21.60;6.80;;;;;;;3.37;100.00;94974.31;5030470;28;24848;-75
2022/02/21 11:31:42;;;;;;;7.53;3.03;;;;;;;3.51;100.00;94964.25;5030010;28;24426;-75